TimeEST,TemperatureF,Dew PointF,Humidity,Sea Level PressureIn,VisibilityMPH,Wind Direction,Wind SpeedMPH,Gust SpeedMPH,PrecipitationIn,Events,Conditions,WindDirDegrees,DateUTC
12:53 AM,75.0,68.0,79,30.03,10.0,SE,8.1,-,N/A,,Clear,140,2013-01-17 05:53:00
1:53 AM,75.0,69.1,82,30.03,10.0,SE,9.2,-,N/A,,Clear,140,2013-01-17 06:53:00
2:53 AM,75.9,70.0,82,30.02,10.0,SE,5.8,-,N/A,,Overcast,130,2013-01-17 07:53:00
3:53 AM,75.9,69.1,79,30.02,10.0,SE,6.9,-,N/A,,Overcast,140,2013-01-17 08:53:00
4:26 AM,71.6,66.2,83,30.04,2.0,SSW,9.2,-,0.14,,Haze,200,2013-01-17 09:26:00
4:36 AM,71.6,66.2,83,30.03,3.0,SSE,3.5,-,0.21,,Overcast,160,2013-01-17 09:36:00
4:53 AM,72.0,68.0,87,30.03,10.0,ESE,3.5,-,0.21,,Overcast,110,2013-01-17 09:53:00
5:53 AM,72.0,66.9,84,30.03,10.0,ESE,5.8,-,N/A,,Overcast,120,2013-01-17 10:53:00
6:53 AM,70.0,66.9,90,30.05,10.0,East,3.5,-,N/A,,Mostly Cloudy,100,2013-01-17 11:53:00
7:53 AM,72.0,69.1,91,30.06,10.0,Calm,Calm,-,N/A,,Mostly Cloudy,0,2013-01-17 12:53:00
8:53 AM,75.0,70.0,84,30.08,10.0,East,3.5,-,N/A,,Mostly Cloudy,80,2013-01-17 13:53:00
9:53 AM,75.9,69.1,79,30.10,10.0,East,5.8,-,N/A,,Mostly Cloudy,90,2013-01-17 14:53:00
10:53 AM,77.0,69.1,76,30.10,10.0,SE,4.6,-,N/A,,Mostly Cloudy,140,2013-01-17 15:53:00
11:53 AM,79.0,68.0,69,30.07,10.0,South,8.1,-,N/A,,Scattered Clouds,170,2013-01-17 16:53:00
12:53 PM,80.1,70.0,71,30.04,10.0,SSW,8.1,-,N/A,,Scattered Clouds,210,2013-01-17 17:53:00
1:53 PM,80.1,70.0,71,30.03,10.0,SSW,9.2,-,N/A,,Scattered Clouds,210,2013-01-17 18:53:00
2:53 PM,81.0,69.1,67,30.02,10.0,WSW,8.1,-,N/A,,Scattered Clouds,250,2013-01-17 19:53:00
3:53 PM,79.0,66.0,64,30.02,10.0,West,8.1,-,N/A,,Scattered Clouds,270,2013-01-17 20:53:00
4:53 PM,78.1,66.9,68,30.04,10.0,WNW,9.2,-,N/A,,Mostly Cloudy,290,2013-01-17 21:53:00
5:04 PM,75.2,66.2,73,30.04,10.0,NNW,21.9,29.9,0.00,Rain,Light Rain,330,2013-01-17 22:04:00
5:23 PM,71.6,68.0,88,30.06,3.0,NNW,17.3,32.2,0.01,Rain,Light Rain,330,2013-01-17 22:23:00
5:45 PM,71.6,68.0,88,30.06,10.0,NNW,19.6,-,0.04,,Overcast,340,2013-01-17 22:45:00
5:53 PM,72.0,66.9,84,30.06,10.0,NNW,18.4,26.5,0.04,,Overcast,340,2013-01-17 22:53:00
6:32 PM,71.6,66.2,83,30.08,10.0,NNW,23.0,31.1,0.00,Rain,Light Rain,330,2013-01-17 23:32:00
6:45 PM,71.6,66.2,83,30.09,10.0,NNW,23.0,29.9,0.00,,Overcast,330,2013-01-17 23:45:00
6:53 PM,70.0,64.9,84,30.09,10.0,NNW,20.7,31.1,0.00,,Overcast,330,2013-01-17 23:53:00
7:53 PM,68.0,62.1,81,30.12,10.0,NNW,24.2,32.2,N/A,,Overcast,330,2013-01-18 00:53:00
8:53 PM,68.0,61.0,78,30.12,10.0,NNW,20.7,31.1,N/A,,Overcast,340,2013-01-18 01:53:00
9:53 PM,68.0,59.0,73,30.13,10.0,NNW,20.7,26.5,N/A,,Overcast,330,2013-01-18 02:53:00
10:53 PM,68.0,57.9,70,30.14,10.0,NW,16.1,-,N/A,,Overcast,320,2013-01-18 03:53:00
11:53 PM,68.0,57.0,68,30.14,10.0,NNW,16.1,-,N/A,,Overcast,330,2013-01-18 04:53:00